createdAt,value
2018-12-14T00:00:15.360Z,57.10
2018-12-14T00:02:51.547Z,56.90
2018-12-14T00:05:27.968Z,57.28
2018-12-14T00:08:04.341Z,56.93
2018-12-14T00:10:40.728Z,56.99
2018-12-14T00:13:17.040Z,57.29
2018-12-14T00:15:54.516Z,56.55
2018-12-14T00:18:30.812Z,55.79
2018-12-14T00:21:07.221Z,56.01
2018-12-14T00:23:44.209Z,55.26
2018-12-14T00:26:20.607Z,55.06
2018-12-14T00:28:57.941Z,54.66
2018-12-14T00:31:35.565Z,54.27
2018-12-14T00:37:22.697Z,54.53
2018-12-14T00:40:10.185Z,54.27
2018-12-14T00:42:52.148Z,54.15
2018-12-14T00:45:34.567Z,54.60
2018-12-14T00:48:16.763Z,54.64
2018-12-14T00:50:54.824Z,53.34
2018-12-14T00:53:34.101Z,52.26
2018-12-14T00:56:12.250Z,52.81
2018-12-14T00:58:55.164Z,52.74
2018-12-14T01:04:24.716Z,51.34
2018-12-14T01:07:08.109Z,51.09
2018-12-14T01:09:51.341Z,51.26
2018-12-14T01:12:34.538Z,51.25
2018-12-14T01:15:19.491Z,50.41
2018-12-14T01:18:00.879Z,50.55
2018-12-14T01:20:42.494Z,49.97
2018-12-14T01:23:22.209Z,49.04
2018-12-14T01:26:00.034Z,49.40
2018-12-14T01:28:38.044Z,50.22
2018-12-14T01:31:37.117Z,49.91
2018-12-14T01:37:13.480Z,49.29
2018-12-14T01:39:53.966Z,48.89
2018-12-14T01:42:33.473Z,48.26
2018-12-14T01:45:12.103Z,49.59
2018-12-14T01:47:52.538Z,48.70
2018-12-14T01:50:33.253Z,49.32
2018-12-14T01:53:13.609Z,48.74
2018-12-14T01:55:51.422Z,47.71
2018-12-14T01:58:29.523Z,48.85
2018-12-14T02:01:08.578Z,48.46
2018-12-14T02:03:45.099Z,48.35
2018-12-14T02:06:21.058Z,48.94
2018-12-14T02:08:58.538Z,48.17
2018-12-14T02:11:39.232Z,48.28
2018-12-14T02:14:23.557Z,48.34
2018-12-14T02:17:05.198Z,47.08
2018-12-14T02:19:43.435Z,47.52
2018-12-14T02:22:29.469Z,47.37
2018-12-14T02:25:09.648Z,46.69
2018-12-14T02:27:56.536Z,47.26
2018-12-14T02:41:36.092Z,45.94
2018-12-14T02:53:26.805Z,44.35
2018-12-14T02:56:13.171Z,45.31
2018-12-14T02:58:51.897Z,44.52
2018-12-14T03:01:40.908Z,42.35
2018-12-14T03:04:19.823Z,43.20
2018-12-14T03:07:11.352Z,43.08
2018-12-14T03:13:18.687Z,41.77
2018-12-14T04:55:41.420Z,40.53
2018-12-14T05:03:14.296Z,40.84
2018-12-14T05:12:55.994Z,41.00
2018-12-14T05:15:29.856Z,40.94
2018-12-14T05:18:08.542Z,40.51
2018-12-14T05:20:46.378Z,41.79
2018-12-14T05:23:30.708Z,41.52
2018-12-14T05:26:21.747Z,41.83
2018-12-14T05:42:35.549Z,40.14
2018-12-14T05:54:55.325Z,40.21
2018-12-14T06:09:47.572Z,41.30
2018-12-14T06:12:27.912Z,40.60
2018-12-14T06:15:07.134Z,40.20
2018-12-14T06:17:47.542Z,40.71
2018-12-14T06:20:29.659Z,38.81
2018-12-14T06:23:46.350Z,40.19
2018-12-14T06:30:13.405Z,40.44
2018-12-14T06:32:55.964Z,41.00
2018-12-14T06:35:33.209Z,41.12
2018-12-14T06:38:11.240Z,40.20
2018-12-14T06:40:48.844Z,40.79
2018-12-14T06:46:29.090Z,40.89
2018-12-14T06:49:05.976Z,41.04
2018-12-14T06:51:43.479Z,39.69
2018-12-14T06:54:20.604Z,41.93
2018-12-14T06:56:56.622Z,40.36
2018-12-14T06:59:41.367Z,40.34
2018-12-14T07:02:18.215Z,40.37
2018-12-14T07:04:55.631Z,39.70
2018-12-14T07:08:03.036Z,39.12
2018-12-14T07:10:42.821Z,40.47
2018-12-14T07:13:30.530Z,41.17
2018-12-14T07:21:53.186Z,40.60
2018-12-14T07:24:30.075Z,40.68
2018-12-14T07:27:12.215Z,42.10
2018-12-14T07:29:52.479Z,41.36
2018-12-14T07:32:55.256Z,41.99
2018-12-14T07:35:33.852Z,41.85
2018-12-14T07:38:15.364Z,41.09
2018-12-14T07:40:53.977Z,41.07
2018-12-14T07:46:35.907Z,40.69
2018-12-14T07:49:16.575Z,40.86
2018-12-14T07:51:56.554Z,40.21
2018-12-14T07:54:53.002Z,41.07
2018-12-14T07:57:32.826Z,41.87
2018-12-14T08:00:16.096Z,39.89
2018-12-14T08:08:37.308Z,41.12
2018-12-14T08:12:11.657Z,40.47
2018-12-14T08:14:55.503Z,42.07
2018-12-14T08:20:30.729Z,41.49
2018-12-14T08:23:33.844Z,40.84
2018-12-14T08:29:35.533Z,42.03
2018-12-14T08:32:33.818Z,42.60
2018-12-14T08:35:12.469Z,42.84
2018-12-14T08:38:05.088Z,42.96
2018-12-14T08:40:45.281Z,42.79
2018-12-14T08:43:54.814Z,42.45
2018-12-14T08:46:34.750Z,43.11
2018-12-14T08:49:15.271Z,42.29
2018-12-14T08:54:36.202Z,43.82
2018-12-14T08:57:15.626Z,43.94
2018-12-14T08:59:57.759Z,44.59
2018-12-14T09:02:41.171Z,42.81
2018-12-14T09:05:18.205Z,42.04
2018-12-14T09:07:56.147Z,42.99
2018-12-14T09:10:35.066Z,43.40
2018-12-14T09:13:18.096Z,42.16
2018-12-14T09:15:56.299Z,42.63
2018-12-14T09:18:33.941Z,41.78
2018-12-14T09:21:21.677Z,42.26
2018-12-14T09:24:01.376Z,42.18
2018-12-14T09:26:38.181Z,43.12
2018-12-14T09:29:15.695Z,42.10
2018-12-14T09:31:53.188Z,42.62
2018-12-14T09:34:30.218Z,43.40
2018-12-14T09:37:07.452Z,43.17
2018-12-14T09:39:44.178Z,44.08
2018-12-14T09:42:22.770Z,43.17
2018-12-14T09:44:59.445Z,44.03
2018-12-14T09:47:39.760Z,44.22
2018-12-14T09:50:19.039Z,44.10
2018-12-14T09:52:55.589Z,45.22
2018-12-14T09:55:32.413Z,44.63
2018-12-14T09:58:09.222Z,45.16
2018-12-14T10:00:48.100Z,44.26
2018-12-14T10:03:28.892Z,45.23
2018-12-14T10:06:06.980Z,45.06
2018-12-14T10:08:45.893Z,44.61
2018-12-14T10:11:24.440Z,45.97
2018-12-14T10:14:04.607Z,45.37
2018-12-14T10:16:42.655Z,45.57
2018-12-14T10:19:21.270Z,46.35
2018-12-14T10:21:59.755Z,45.33
2018-12-14T10:24:38.134Z,45.04
2018-12-14T10:32:19.474Z,44.59
2018-12-14T10:34:59.274Z,45.35
2018-12-14T10:37:40.803Z,44.68
2018-12-14T10:40:19.591Z,44.34
2018-12-14T10:42:58.337Z,43.89
2018-12-14T10:45:37.103Z,44.02
2018-12-14T10:48:15.258Z,44.23
2018-12-14T10:50:53.705Z,44.88
2018-12-14T10:53:34.641Z,45.36
2018-12-14T10:56:13.753Z,44.42
2018-12-14T10:58:52.716Z,44.86
2018-12-14T11:01:33.220Z,44.82
2018-12-14T11:04:15.105Z,44.52
2018-12-14T11:06:53.736Z,44.70
2018-12-14T11:09:33.193Z,44.25
2018-12-14T11:12:11.878Z,43.81
2018-12-14T11:14:50.423Z,45.32
2018-12-14T11:17:30.474Z,44.93
2018-12-14T11:20:09.643Z,44.89
2018-12-14T11:22:48.171Z,45.35
2018-12-14T11:25:26.219Z,44.39
2018-12-14T11:28:05.827Z,45.95
2018-12-14T11:30:46.057Z,45.40
2018-12-14T11:33:40.390Z,44.91
2018-12-14T11:43:26.998Z,44.23
2018-12-14T11:46:04.037Z,45.64
2018-12-14T11:48:42.942Z,45.76
2018-12-14T11:51:29.853Z,45.82
2018-12-14T11:54:06.716Z,44.33
2018-12-14T11:56:43.155Z,45.54
2018-12-14T11:59:20.046Z,44.79
2018-12-14T12:01:57.180Z,46.13
2018-12-14T12:04:37.020Z,44.96
2018-12-14T12:07:14.304Z,44.92
2018-12-14T12:09:53.394Z,45.04
2018-12-14T12:12:32.082Z,46.13
2018-12-14T12:15:11.330Z,45.70
2018-12-14T12:17:49.531Z,46.47
2018-12-14T12:20:26.712Z,46.35
2018-12-14T12:23:03.927Z,46.72
2018-12-14T12:25:43.367Z,46.12
2018-12-14T12:28:23.420Z,45.88
2018-12-14T12:31:08.714Z,46.50
2018-12-14T12:33:46.123Z,46.70
2018-12-14T12:36:25.160Z,45.98
2018-12-14T12:39:04.716Z,46.40
2018-12-14T12:41:42.378Z,46.51
2018-12-14T12:44:20.274Z,46.33
2018-12-14T12:46:58.201Z,47.04
2018-12-14T12:49:39.819Z,48.12
2018-12-14T12:52:17.747Z,48.39
2018-12-14T12:54:55.736Z,48.32
2018-12-14T12:57:34.369Z,49.12
2018-12-14T13:00:12.227Z,48.76
2018-12-14T13:02:50.014Z,49.16
2018-12-14T13:05:34.691Z,49.28
2018-12-14T13:08:09.403Z,49.40
2018-12-14T13:10:48.410Z,49.19
2018-12-14T13:13:25.947Z,49.71
2018-12-14T13:16:04.200Z,50.19
2018-12-14T13:18:43.303Z,50.47
2018-12-14T13:21:21.428Z,50.58
2018-12-14T13:24:00.450Z,50.92
2018-12-14T13:26:38.845Z,51.30
2018-12-14T13:29:16.456Z,50.84
2018-12-14T13:31:56.186Z,51.83
2018-12-14T13:34:36.187Z,51.83
2018-12-14T13:37:12.352Z,51.82
2018-12-14T13:39:56.162Z,52.12
2018-12-14T13:42:34.357Z,52.25
2018-12-14T13:45:15.547Z,52.43
2018-12-14T13:47:53.342Z,52.77
2018-12-14T13:50:32.099Z,52.46
2018-12-14T13:53:10.357Z,53.02
2018-12-14T13:55:48.361Z,52.54
2018-12-14T13:58:26.535Z,53.03
2018-12-14T14:01:05.060Z,52.82
2018-12-14T14:09:18.743Z,52.76
2018-12-14T14:12:01.339Z,52.71
2018-12-14T14:14:41.887Z,52.36
2018-12-14T14:17:23.762Z,52.24
2018-12-14T14:20:02.244Z,53.17
2018-12-14T14:22:48.237Z,52.33
2018-12-14T14:25:27.795Z,52.88
2018-12-14T14:28:10.370Z,52.70
2018-12-14T14:30:49.161Z,52.59
2018-12-14T14:33:27.849Z,53.11
2018-12-14T14:36:05.949Z,52.79
2018-12-14T14:38:42.908Z,53.14
2018-12-14T14:41:20.798Z,53.58
2018-12-14T14:44:01.274Z,52.48
2018-12-14T14:46:39.685Z,51.96
2018-12-14T14:49:16.051Z,53.24
2018-12-14T14:51:52.532Z,52.48
2018-12-14T14:54:28.887Z,52.19
2018-12-14T14:57:04.944Z,52.43
2018-12-14T14:59:41.124Z,52.47
2018-12-14T15:02:17.018Z,52.74
2018-12-14T15:04:53.882Z,53.04
2018-12-14T15:07:32.410Z,53.47
2018-12-14T15:10:09.460Z,52.64
2018-12-14T15:12:47.843Z,53.06
2018-12-14T15:15:25.559Z,52.92
2018-12-14T15:18:02.725Z,53.08
2018-12-14T15:20:41.721Z,53.35
2018-12-14T15:23:19.286Z,53.25
2018-12-14T15:25:57.289Z,52.69
2018-12-14T15:28:35.435Z,52.65
2018-12-14T15:31:11.607Z,52.08
2018-12-14T15:33:47.745Z,52.06
2018-12-14T15:36:24.355Z,52.62
2018-12-14T15:39:00.501Z,52.76
2018-12-14T15:41:36.817Z,53.36
2018-12-14T15:44:13.294Z,53.43
2018-12-14T15:46:49.951Z,53.46
2018-12-14T15:49:26.888Z,53.19
2018-12-14T15:52:04.531Z,53.17
2018-12-14T15:54:41.503Z,53.05
2018-12-14T15:57:18.492Z,52.47
2018-12-14T15:59:55.138Z,52.57
2018-12-14T16:02:31.160Z,52.57
2018-12-14T16:05:08.805Z,52.69
2018-12-14T16:07:45.833Z,52.55
2018-12-14T16:10:24.069Z,53.25
2018-12-14T16:13:09.529Z,53.52
2018-12-14T16:15:46.904Z,53.37
2018-12-14T16:18:23.380Z,54.00
2018-12-14T16:21:00.715Z,53.47
2018-12-14T16:23:40.245Z,53.40
2018-12-14T16:26:16.655Z,54.28
2018-12-14T16:28:52.969Z,53.60
2018-12-14T16:31:29.772Z,54.28
2018-12-14T16:34:05.974Z,54.50
2018-12-14T16:36:43.215Z,54.30
2018-12-14T16:39:20.555Z,54.54
2018-12-14T16:41:59.339Z,54.55
2018-12-14T16:44:37.913Z,54.32
2018-12-14T16:47:14.612Z,54.79
2018-12-14T16:49:50.600Z,55.14
2018-12-14T16:52:27.618Z,54.56
2018-12-14T16:55:03.968Z,54.76
2018-12-14T16:57:41.440Z,55.25
2018-12-14T17:00:18.289Z,54.96
2018-12-14T17:02:58.529Z,55.22
2018-12-14T17:05:35.698Z,54.90
2018-12-14T17:08:12.466Z,55.47
2018-12-14T17:10:50.734Z,54.97
2018-12-14T17:13:30.920Z,54.22
2018-12-14T17:16:08.260Z,52.70
2018-12-14T17:18:44.813Z,52.41
2018-12-14T17:21:21.889Z,52.34
2018-12-14T17:23:58.029Z,52.43
2018-12-14T17:26:35.139Z,53.35
2018-12-14T17:29:11.712Z,52.46
2018-12-14T17:31:48.095Z,52.14
2018-12-14T17:34:24.683Z,51.87
2018-12-14T17:37:01.436Z,52.31
2018-12-14T17:39:37.745Z,52.19
2018-12-14T17:42:15.014Z,52.05
2018-12-14T17:49:56.998Z,51.58
2018-12-14T17:52:32.971Z,51.93
2018-12-14T17:55:09.023Z,51.40
2018-12-14T17:57:44.899Z,51.17
2018-12-14T18:00:21.135Z,51.39
2018-12-14T18:02:57.167Z,52.21
2018-12-14T18:05:33.377Z,51.65
2018-12-14T18:08:09.567Z,51.32
2018-12-14T18:10:47.537Z,51.60
2018-12-14T18:13:23.519Z,51.10
2018-12-14T18:16:01.493Z,51.05
2018-12-14T18:18:37.388Z,50.94
2018-12-14T18:21:13.721Z,50.50
2018-12-14T18:23:51.265Z,50.64
2018-12-14T18:26:28.592Z,50.68
2018-12-14T18:29:05.537Z,50.58
2018-12-14T18:31:41.778Z,50.72
2018-12-14T18:34:17.787Z,50.76
2018-12-14T18:36:53.869Z,51.01
2018-12-14T18:39:30.313Z,51.43
2018-12-14T18:42:07.316Z,51.25
2018-12-14T18:44:43.296Z,51.46
2018-12-14T18:47:19.555Z,51.63
2018-12-14T18:49:55.458Z,51.16
2018-12-14T18:52:31.505Z,51.29
2018-12-14T18:55:08.658Z,51.33
2018-12-14T18:57:45.114Z,51.21
2018-12-14T19:00:21.719Z,51.30
2018-12-14T19:02:58.971Z,51.48
2018-12-14T19:05:35.228Z,51.34
2018-12-14T19:08:11.322Z,51.71
2018-12-14T19:10:47.082Z,51.69
2018-12-14T19:13:23.127Z,51.67
2018-12-14T19:15:59.788Z,51.89
2018-12-14T19:18:36.272Z,52.15
2018-12-14T19:21:13.950Z,52.23
2018-12-14T19:23:50.230Z,52.41
2018-12-14T19:26:27.229Z,52.18
2018-12-14T19:29:03.667Z,52.79
2018-12-14T19:31:40.618Z,52.20
2018-12-14T19:34:17.096Z,52.71
2018-12-14T19:36:53.304Z,53.00
2018-12-14T19:39:30.687Z,52.58
2018-12-14T19:42:10.870Z,52.65
2018-12-14T19:44:47.545Z,52.17
2018-12-14T19:47:25.007Z,52.56
2018-12-14T19:50:02.483Z,52.44
2018-12-14T19:52:38.882Z,52.56
2018-12-14T19:55:16.208Z,52.66
2018-12-14T19:57:52.469Z,52.53
2018-12-14T20:00:28.723Z,52.08
2018-12-14T20:03:05.033Z,51.97
2018-12-14T20:05:43.972Z,51.90
2018-12-14T20:08:20.263Z,51.84
2018-12-14T20:10:56.571Z,52.13
2018-12-14T20:13:32.774Z,52.01
2018-12-14T20:16:12.725Z,51.48
2018-12-14T20:18:48.414Z,51.67
2018-12-14T20:21:26.948Z,51.16
2018-12-14T20:24:04.482Z,50.88
2018-12-14T20:26:41.844Z,51.20
2018-12-14T20:29:18.261Z,51.23
2018-12-14T20:31:55.573Z,51.10
2018-12-14T20:34:32.884Z,50.79
2018-12-14T20:37:10.370Z,50.99
2018-12-14T20:39:47.590Z,51.36
2018-12-14T20:42:23.836Z,51.19
2018-12-14T20:45:01.999Z,51.32
2018-12-14T20:47:39.486Z,51.43
2018-12-14T20:50:17.520Z,51.48
2018-12-14T20:52:54.866Z,51.33
2018-12-14T20:55:32.163Z,51.74
2018-12-14T20:58:08.477Z,51.89
2018-12-14T21:00:44.842Z,51.92
2018-12-14T21:03:21.070Z,52.25
2018-12-14T21:05:57.369Z,52.17
2018-12-14T21:08:33.355Z,52.20
2018-12-14T21:11:09.873Z,52.17
2018-12-14T21:13:46.143Z,51.96
2018-12-14T21:16:30.193Z,52.31
2018-12-14T21:19:06.464Z,52.75
2018-12-14T21:21:42.895Z,52.72
2018-12-14T21:24:19.033Z,52.56
2018-12-14T21:26:55.119Z,52.62
2018-12-14T21:29:32.897Z,53.23
2018-12-14T21:32:10.877Z,52.79
2018-12-14T21:34:48.816Z,52.41
2018-12-14T21:37:25.512Z,52.70
2018-12-14T21:40:01.898Z,52.67
2018-12-14T21:42:38.165Z,52.58
2018-12-14T21:45:14.534Z,52.85
2018-12-14T21:47:51.008Z,53.03
2018-12-14T21:50:27.269Z,53.30
2018-12-14T21:53:03.683Z,53.37
2018-12-14T21:55:39.761Z,53.50
2018-12-14T21:58:16.147Z,53.44
2018-12-14T22:00:53.674Z,53.43
2018-12-14T22:03:29.870Z,53.57
2018-12-14T22:06:06.216Z,53.50
2018-12-14T22:08:42.755Z,53.64
2018-12-14T22:11:18.907Z,53.43
2018-12-14T22:13:55.068Z,53.77
2018-12-14T22:16:39.187Z,53.60
2018-12-14T22:19:14.020Z,54.05
2018-12-14T22:21:50.097Z,54.04
2018-12-14T22:24:27.396Z,53.94
2018-12-14T22:27:03.551Z,54.32
2018-12-14T22:29:39.688Z,54.18
2018-12-14T22:32:16.253Z,54.67
2018-12-14T22:34:53.201Z,54.82
2018-12-14T22:37:29.492Z,54.92
2018-12-14T22:40:05.601Z,54.97
2018-12-14T22:42:42.691Z,55.24
2018-12-14T22:45:18.785Z,55.22
2018-12-14T22:47:54.775Z,55.45
2018-12-14T22:50:33.285Z,55.53
2018-12-14T22:53:09.515Z,55.60
2018-12-14T22:55:45.401Z,55.57
2018-12-14T22:58:21.421Z,55.64
2018-12-14T23:01:00.425Z,55.92
2018-12-14T23:03:37.633Z,55.55
2018-12-14T23:06:14.506Z,55.84
2018-12-14T23:08:50.623Z,56.40
2018-12-14T23:11:26.591Z,57.23
2018-12-14T23:14:05.405Z,56.72
2018-12-14T23:16:41.611Z,56.91
2018-12-14T23:19:17.917Z,56.87
2018-12-14T23:21:54.366Z,57.00
2018-12-14T23:24:30.337Z,57.04
2018-12-14T23:27:06.803Z,57.47
2018-12-14T23:29:43.962Z,57.68
2018-12-14T23:32:20.247Z,57.88
2018-12-14T23:34:58.345Z,58.53
2018-12-14T23:37:36.084Z,58.82
2018-12-14T23:40:13.463Z,58.68
2018-12-14T23:42:52.283Z,58.97
2018-12-14T23:45:33.622Z,58.78
2018-12-14T23:48:18.300Z,58.63
2018-12-14T23:50:56.920Z,59.00
2018-12-14T23:53:35.013Z,58.79
2018-12-14T23:56:13.033Z,59.21
2018-12-14T23:58:51.071Z,59.05
